sensor_id;sensor_type;location;lat;lon;timestamp;temperature;humidity
10451;DHT22;5273;51.290;6.918;2023-07-29T00:00:41;19.60;99.90
10451;DHT22;5273;51.290;6.918;2023-07-29T00:03:08;19.90;99.90
10451;DHT22;5273;51.290;6.918;2023-07-29T00:05:36;19.50;99.90
10451;DHT22;5273;51.290;6.918;2023-07-29T00:08:05;19.50;99.90
10451;DHT22;5273;51.290;6.918;2023-07-29T00:10:33;19.50;99.90
10451;DHT22;5273;51.290;6.918;2023-07-29T00:13:02;19.50;99.90
10451;DHT22;5273;51.290;6.918;2023-07-29T00:15:28;19.50;99.90
10451;DHT22;5273;51.290;6.918;2023-07-29T00:17:55;19.50;99.90
10451;DHT22;5273;51.290;6.918;2023-07-29T00:20:22;19.50;99.90
10451;DHT22;5273;51.290;6.918;2023-07-29T00:22:49;19.50;99.90
10451;DHT22;5273;51.290;6.918;2023-07-29T00:25:20;19.50;99.90
10451;DHT22;5273;51.290;6.918;2023-07-29T00:27:47;19.50;99.90
10451;DHT22;5273;51.290;6.918;2023-07-29T00:30:14;19.50;99.90
10451;DHT22;5273;51.290;6.918;2023-07-29T00:32:41;19.50;99.90
10451;DHT22;5273;51.290;6.918;2023-07-29T00:35:08;19.40;99.90
10451;DHT22;5273;51.290;6.918;2023-07-29T00:37:35;19.40;99.90
10451;DHT22;5273;51.290;6.918;2023-07-29T00:40:03;19.50;99.90
10451;DHT22;5273;51.290;6.918;2023-07-29T00:42:31;19.40;99.90
10451;DHT22;5273;51.290;6.918;2023-07-29T00:44:58;19.40;99.90
10451;DHT22;5273;51.290;6.918;2023-07-29T00:47:25;19.40;99.90
10451;DHT22;5273;51.290;6.918;2023-07-29T00:49:52;19.40;99.90
10451;DHT22;5273;51.290;6.918;2023-07-29T00:52:19;19.50;99.90
10451;DHT22;5273;51.290;6.918;2023-07-29T00:54:45;19.40;99.90
10451;DHT22;5273;51.290;6.918;2023-07-29T00:57:14;19.40;99.90
10451;DHT22;5273;51.290;6.918;2023-07-29T00:59:43;19.40;99.90
10451;DHT22;5273;51.290;6.918;2023-07-29T01:02:10;19.40;99.90
10451;DHT22;5273;51.290;6.918;2023-07-29T01:04:37;19.40;99.90
10451;DHT22;5273;51.290;6.918;2023-07-29T01:07:09;19.30;99.90
10451;DHT22;5273;51.290;6.918;2023-07-29T01:09:43;19.30;99.90
10451;DHT22;5273;51.290;6.918;2023-07-29T01:12:18;19.30;99.90
10451;DHT22;5273;51.290;6.918;2023-07-29T01:14:54;19.30;99.90
10451;DHT22;5273;51.290;6.918;2023-07-29T01:17:25;19.30;99.90
10451;DHT22;5273;51.290;6.918;2023-07-29T01:20:00;19.30;99.90
10451;DHT22;5273;51.290;6.918;2023-07-29T01:22:29;19.00;99.90
10451;DHT22;5273;51.290;6.918;2023-07-29T01:24:58;19.20;99.90
10451;DHT22;5273;51.290;6.918;2023-07-29T01:27:25;19.20;99.90
10451;DHT22;5273;51.290;6.918;2023-07-29T01:29:52;19.30;99.90
10451;DHT22;5273;51.290;6.918;2023-07-29T01:32:25;19.20;99.90
10451;DHT22;5273;51.290;6.918;2023-07-29T01:35:07;19.20;99.90
10451;DHT22;5273;51.290;6.918;2023-07-29T01:37:37;19.20;99.90
10451;DHT22;5273;51.290;6.918;2023-07-29T01:40:09;19.20;99.90
10451;DHT22;5273;51.290;6.918;2023-07-29T01:42:37;19.20;99.90
10451;DHT22;5273;51.290;6.918;2023-07-29T01:45:05;19.20;99.90
10451;DHT22;5273;51.290;6.918;2023-07-29T01:47:32;19.20;99.90
10451;DHT22;5273;51.290;6.918;2023-07-29T01:49:59;19.20;99.90
10451;DHT22;5273;51.290;6.918;2023-07-29T01:52:25;19.20;99.90
10451;DHT22;5273;51.290;6.918;2023-07-29T01:54:52;19.20;99.90
10451;DHT22;5273;51.290;6.918;2023-07-29T01:57:20;19.20;99.90
10451;DHT22;5273;51.290;6.918;2023-07-29T01:59:47;19.20;99.90
10451;DHT22;5273;51.290;6.918;2023-07-29T02:02:14;19.20;99.90
10451;DHT22;5273;51.290;6.918;2023-07-29T02:04:41;19.30;99.90
10451;DHT22;5273;51.290;6.918;2023-07-29T02:07:07;19.20;99.90
10451;DHT22;5273;51.290;6.918;2023-07-29T02:09:34;19.20;99.90
10451;DHT22;5273;51.290;6.918;2023-07-29T02:12:01;19.20;99.90
10451;DHT22;5273;51.290;6.918;2023-07-29T02:14:29;19.20;99.90
10451;DHT22;5273;51.290;6.918;2023-07-29T02:16:56;19.20;99.90
10451;DHT22;5273;51.290;6.918;2023-07-29T02:19:23;19.20;99.90
10451;DHT22;5273;51.290;6.918;2023-07-29T02:21:50;19.20;99.90
10451;DHT22;5273;51.290;6.918;2023-07-29T02:24:16;19.20;99.90
10451;DHT22;5273;51.290;6.918;2023-07-29T02:26:43;19.20;99.90
10451;DHT22;5273;51.290;6.918;2023-07-29T02:29:10;19.20;99.90
10451;DHT22;5273;51.290;6.918;2023-07-29T02:31:38;19.20;99.90
10451;DHT22;5273;51.290;6.918;2023-07-29T02:34:05;19.20;99.90
10451;DHT22;5273;51.290;6.918;2023-07-29T02:36:31;19.20;99.90
10451;DHT22;5273;51.290;6.918;2023-07-29T02:38:58;19.20;99.90
10451;DHT22;5273;51.290;6.918;2023-07-29T02:41:25;19.20;99.90
10451;DHT22;5273;51.290;6.918;2023-07-29T02:43:52;19.20;99.90
10451;DHT22;5273;51.290;6.918;2023-07-29T02:46:19;19.20;99.90
10451;DHT22;5273;51.290;6.918;2023-07-29T02:48:47;19.20;99.90
10451;DHT22;5273;51.290;6.918;2023-07-29T02:51:14;19.20;99.90
10451;DHT22;5273;51.290;6.918;2023-07-29T02:53:40;19.20;99.90
10451;DHT22;5273;51.290;6.918;2023-07-29T02:56:08;19.30;99.90
10451;DHT22;5273;51.290;6.918;2023-07-29T02:58:35;19.20;99.90
10451;DHT22;5273;51.290;6.918;2023-07-29T03:01:03;19.20;99.90
10451;DHT22;5273;51.290;6.918;2023-07-29T03:03:31;19.20;99.90
10451;DHT22;5273;51.290;6.918;2023-07-29T03:06:01;19.20;99.90
10451;DHT22;5273;51.290;6.918;2023-07-29T03:08:28;19.20;99.90
10451;DHT22;5273;51.290;6.918;2023-07-29T03:10:56;19.20;99.90
10451;DHT22;5273;51.290;6.918;2023-07-29T03:13:23;19.20;99.90
10451;DHT22;5273;51.290;6.918;2023-07-29T03:15:50;19.20;99.90
10451;DHT22;5273;51.290;6.918;2023-07-29T03:18:16;19.20;99.90
10451;DHT22;5273;51.290;6.918;2023-07-29T03:20:43;19.20;99.90
10451;DHT22;5273;51.290;6.918;2023-07-29T03:23:11;19.30;99.90
10451;DHT22;5273;51.290;6.918;2023-07-29T03:25:38;19.30;99.90
10451;DHT22;5273;51.290;6.918;2023-07-29T03:28:05;19.30;99.90
10451;DHT22;5273;51.290;6.918;2023-07-29T03:30:32;19.30;99.90
10451;DHT22;5273;51.290;6.918;2023-07-29T03:32:59;18.90;99.90
10451;DHT22;5273;51.290;6.918;2023-07-29T03:35:25;19.30;99.90
10451;DHT22;5273;51.290;6.918;2023-07-29T03:37:52;19.20;99.90
10451;DHT22;5273;51.290;6.918;2023-07-29T03:40:20;19.30;99.90
10451;DHT22;5273;51.290;6.918;2023-07-29T03:42:48;19.30;99.90
10451;DHT22;5273;51.290;6.918;2023-07-29T03:45:15;19.30;99.90
10451;DHT22;5273;51.290;6.918;2023-07-29T03:47:41;19.30;99.90
10451;DHT22;5273;51.290;6.918;2023-07-29T03:50:09;19.30;99.90
10451;DHT22;5273;51.290;6.918;2023-07-29T03:52:36;19.30;99.90
10451;DHT22;5273;51.290;6.918;2023-07-29T03:55:03;19.40;99.90
10451;DHT22;5273;51.290;6.918;2023-07-29T03:57:31;19.30;99.90
10451;DHT22;5273;51.290;6.918;2023-07-29T03:59:58;19.00;99.90
10451;DHT22;5273;51.290;6.918;2023-07-29T04:02:24;19.30;99.90
10451;DHT22;5273;51.290;6.918;2023-07-29T04:04:51;19.30;99.90
10451;DHT22;5273;51.290;6.918;2023-07-29T04:07:18;19.30;99.90
10451;DHT22;5273;51.290;6.918;2023-07-29T04:09:45;19.30;99.90
10451;DHT22;5273;51.290;6.918;2023-07-29T04:12:12;19.30;99.90
10451;DHT22;5273;51.290;6.918;2023-07-29T04:14:40;19.20;99.90
10451;DHT22;5273;51.290;6.918;2023-07-29T04:17:07;19.20;99.90
10451;DHT22;5273;51.290;6.918;2023-07-29T04:19:34;19.20;99.90
10451;DHT22;5273;51.290;6.918;2023-07-29T04:22:01;19.20;99.90
10451;DHT22;5273;51.290;6.918;2023-07-29T04:24:27;19.20;99.90
10451;DHT22;5273;51.290;6.918;2023-07-29T04:26:54;19.20;99.90
10451;DHT22;5273;51.290;6.918;2023-07-29T04:29:21;19.20;99.90
10451;DHT22;5273;51.290;6.918;2023-07-29T04:31:50;19.10;99.90
10451;DHT22;5273;51.290;6.918;2023-07-29T04:34:17;19.10;99.90
10451;DHT22;5273;51.290;6.918;2023-07-29T04:36:44;19.10;99.90
10451;DHT22;5273;51.290;6.918;2023-07-29T04:39:11;19.10;99.90
10451;DHT22;5273;51.290;6.918;2023-07-29T04:41:38;19.10;99.90
10451;DHT22;5273;51.290;6.918;2023-07-29T04:44:05;19.10;99.90
10451;DHT22;5273;51.290;6.918;2023-07-29T04:46:31;19.00;99.90
10451;DHT22;5273;51.290;6.918;2023-07-29T04:48:59;19.00;99.90
10451;DHT22;5273;51.290;6.918;2023-07-29T04:51:26;19.00;99.90
10451;DHT22;5273;51.290;6.918;2023-07-29T04:53:53;19.00;99.90
10451;DHT22;5273;51.290;6.918;2023-07-29T04:56:20;19.00;99.90
10451;DHT22;5273;51.290;6.918;2023-07-29T04:58:47;18.90;99.90
10451;DHT22;5273;51.290;6.918;2023-07-29T05:01:13;18.90;99.90
10451;DHT22;5273;51.290;6.918;2023-07-29T05:03:40;19.40;99.90
10451;DHT22;5273;51.290;6.918;2023-07-29T05:06:08;18.90;99.90
10451;DHT22;5273;51.290;6.918;2023-07-29T05:08:35;18.80;99.90
10451;DHT22;5273;51.290;6.918;2023-07-29T05:11:02;18.90;99.90
10451;DHT22;5273;51.290;6.918;2023-07-29T05:13:28;18.90;99.90
10451;DHT22;5273;51.290;6.918;2023-07-29T05:15:55;19.00;99.90
10451;DHT22;5273;51.290;6.918;2023-07-29T05:18:22;19.00;99.90
10451;DHT22;5273;51.290;6.918;2023-07-29T05:20:49;19.10;99.90
10451;DHT22;5273;51.290;6.918;2023-07-29T05:23:17;19.10;99.90
10451;DHT22;5273;51.290;6.918;2023-07-29T05:25:44;19.20;99.90
10451;DHT22;5273;51.290;6.918;2023-07-29T05:28:11;19.20;99.90
10451;DHT22;5273;51.290;6.918;2023-07-29T05:30:38;19.20;99.90
10451;DHT22;5273;51.290;6.918;2023-07-29T05:33:05;19.30;99.90
10451;DHT22;5273;51.290;6.918;2023-07-29T05:35:33;19.30;99.90
10451;DHT22;5273;51.290;6.918;2023-07-29T05:38:00;19.40;99.90
10451;DHT22;5273;51.290;6.918;2023-07-29T05:40:28;19.30;99.90
10451;DHT22;5273;51.290;6.918;2023-07-29T05:42:54;19.30;99.90
10451;DHT22;5273;51.290;6.918;2023-07-29T05:45:21;19.30;99.90
10451;DHT22;5273;51.290;6.918;2023-07-29T05:47:48;19.30;99.90
10451;DHT22;5273;51.290;6.918;2023-07-29T05:50:15;19.20;99.90
10451;DHT22;5273;51.290;6.918;2023-07-29T05:52:42;19.20;99.90
10451;DHT22;5273;51.290;6.918;2023-07-29T05:55:09;19.10;99.90
10451;DHT22;5273;51.290;6.918;2023-07-29T05:57:37;19.20;99.90
10451;DHT22;5273;51.290;6.918;2023-07-29T06:00:05;19.20;99.90
10451;DHT22;5273;51.290;6.918;2023-07-29T06:02:32;19.20;99.90
10451;DHT22;5273;51.290;6.918;2023-07-29T06:04:58;19.20;99.90
10451;DHT22;5273;51.290;6.918;2023-07-29T06:07:26;19.20;99.90
10451;DHT22;5273;51.290;6.918;2023-07-29T06:09:55;19.20;99.90
10451;DHT22;5273;51.290;6.918;2023-07-29T06:12:23;19.20;99.90
10451;DHT22;5273;51.290;6.918;2023-07-29T06:14:51;19.20;99.90
10451;DHT22;5273;51.290;6.918;2023-07-29T06:17:18;19.30;99.90
10451;DHT22;5273;51.290;6.918;2023-07-29T06:19:44;19.30;99.90
10451;DHT22;5273;51.290;6.918;2023-07-29T06:22:11;19.30;99.90
10451;DHT22;5273;51.290;6.918;2023-07-29T06:24:38;19.40;99.90
10451;DHT22;5273;51.290;6.918;2023-07-29T06:27:05;19.30;99.90
10451;DHT22;5273;51.290;6.918;2023-07-29T06:29:32;19.30;99.90
10451;DHT22;5273;51.290;6.918;2023-07-29T06:32:01;19.40;99.90
10451;DHT22;5273;51.290;6.918;2023-07-29T06:34:27;20.20;99.90
10451;DHT22;5273;51.290;6.918;2023-07-29T06:36:54;19.60;99.90
10451;DHT22;5273;51.290;6.918;2023-07-29T06:39:21;19.70;99.90
10451;DHT22;5273;51.290;6.918;2023-07-29T06:41:48;19.80;99.90
10451;DHT22;5273;51.290;6.918;2023-07-29T06:44:15;19.90;99.90
10451;DHT22;5273;51.290;6.918;2023-07-29T06:46:41;19.90;99.90
10451;DHT22;5273;51.290;6.918;2023-07-29T06:49:10;19.90;99.90
10451;DHT22;5273;51.290;6.918;2023-07-29T06:51:36;19.90;99.90
10451;DHT22;5273;51.290;6.918;2023-07-29T06:54:03;20.00;99.90
10451;DHT22;5273;51.290;6.918;2023-07-29T06:56:30;20.00;99.90
10451;DHT22;5273;51.290;6.918;2023-07-29T06:58:57;20.30;99.90
10451;DHT22;5273;51.290;6.918;2023-07-29T07:01:23;20.60;99.90
10451;DHT22;5273;51.290;6.918;2023-07-29T07:03:50;20.90;99.90
10451;DHT22;5273;51.290;6.918;2023-07-29T07:06:21;21.10;99.90
10451;DHT22;5273;51.290;6.918;2023-07-29T07:08:50;21.30;99.90
10451;DHT22;5273;51.290;6.918;2023-07-29T07:11:17;21.60;99.90
10451;DHT22;5273;51.290;6.918;2023-07-29T07:13:44;22.10;99.90
10451;DHT22;5273;51.290;6.918;2023-07-29T07:16:11;22.50;99.90
10451;DHT22;5273;51.290;6.918;2023-07-29T07:18:38;22.90;99.90
10451;DHT22;5273;51.290;6.918;2023-07-29T07:21:04;23.10;99.90
10451;DHT22;5273;51.290;6.918;2023-07-29T07:23:33;23.30;99.90
10451;DHT22;5273;51.290;6.918;2023-07-29T07:25:59;23.40;99.90
10451;DHT22;5273;51.290;6.918;2023-07-29T07:28:26;23.50;99.90
10451;DHT22;5273;51.290;6.918;2023-07-29T07:30:53;23.30;99.90
10451;DHT22;5273;51.290;6.918;2023-07-29T07:33:21;23.30;99.90
10451;DHT22;5273;51.290;6.918;2023-07-29T07:35:48;23.30;99.90
10451;DHT22;5273;51.290;6.918;2023-07-29T07:38:15;23.50;99.90
10451;DHT22;5273;51.290;6.918;2023-07-29T07:40:51;24.00;99.90
10451;DHT22;5273;51.290;6.918;2023-07-29T07:43:18;25.00;99.90
10451;DHT22;5273;51.290;6.918;2023-07-29T07:45:45;25.70;99.30
10451;DHT22;5273;51.290;6.918;2023-07-29T07:48:12;26.00;98.60
10451;DHT22;5273;51.290;6.918;2023-07-29T07:50:38;26.10;97.10
10451;DHT22;5273;51.290;6.918;2023-07-29T07:53:05;26.50;96.80
10451;DHT22;5273;51.290;6.918;2023-07-29T07:55:32;27.00;96.60
10451;DHT22;5273;51.290;6.918;2023-07-29T07:58:00;28.00;95.00
10451;DHT22;5273;51.290;6.918;2023-07-29T08:00:27;28.30;91.10
10451;DHT22;5273;51.290;6.918;2023-07-29T08:02:54;28.40;91.00
10451;DHT22;5273;51.290;6.918;2023-07-29T08:05:20;28.40;91.80
10451;DHT22;5273;51.290;6.918;2023-07-29T08:07:47;28.70;91.00
10451;DHT22;5273;51.290;6.918;2023-07-29T08:10:14;28.90;87.70
10451;DHT22;5273;51.290;6.918;2023-07-29T08:12:41;28.90;88.70
10451;DHT22;5273;51.290;6.918;2023-07-29T08:15:09;28.70;84.50
10451;DHT22;5273;51.290;6.918;2023-07-29T08:17:36;28.40;87.40
10451;DHT22;5273;51.290;6.918;2023-07-29T08:20:03;28.40;87.00
10451;DHT22;5273;51.290;6.918;2023-07-29T08:22:30;28.90;87.70
10451;DHT22;5273;51.290;6.918;2023-07-29T08:24:57;29.60;85.40
10451;DHT22;5273;51.290;6.918;2023-07-29T08:27:23;30.20;82.30
10451;DHT22;5273;51.290;6.918;2023-07-29T08:29:50;30.20;78.90
10451;DHT22;5273;51.290;6.918;2023-07-29T08:32:18;30.10;81.50
10451;DHT22;5273;51.290;6.918;2023-07-29T08:34:45;30.50;78.30
10451;DHT22;5273;51.290;6.918;2023-07-29T08:37:12;30.60;79.00
10451;DHT22;5273;51.290;6.918;2023-07-29T08:39:39;31.30;77.90
10451;DHT22;5273;51.290;6.918;2023-07-29T08:42:08;32.20;77.00
10451;DHT22;5273;51.290;6.918;2023-07-29T08:44:40;33.20;71.50
10451;DHT22;5273;51.290;6.918;2023-07-29T08:47:07;33.50;67.70
10451;DHT22;5273;51.290;6.918;2023-07-29T08:49:36;34.20;65.80
10451;DHT22;5273;51.290;6.918;2023-07-29T08:52:04;34.50;62.10
10451;DHT22;5273;51.290;6.918;2023-07-29T08:54:31;34.90;59.70
10451;DHT22;5273;51.290;6.918;2023-07-29T08:56:59;35.20;60.20
10451;DHT22;5273;51.290;6.918;2023-07-29T08:59:28;35.50;57.80
10451;DHT22;5273;51.290;6.918;2023-07-29T09:01:56;35.70;54.60
10451;DHT22;5273;51.290;6.918;2023-07-29T09:04:23;35.90;55.60
10451;DHT22;5273;51.290;6.918;2023-07-29T09:06:53;36.00;55.00
10451;DHT22;5273;51.290;6.918;2023-07-29T09:09:22;36.40;52.90
10451;DHT22;5273;51.290;6.918;2023-07-29T09:11:49;36.50;51.00
10451;DHT22;5273;51.290;6.918;2023-07-29T09:14:16;36.80;48.80
10451;DHT22;5273;51.290;6.918;2023-07-29T09:16:43;36.70;48.90
10451;DHT22;5273;51.290;6.918;2023-07-29T09:19:11;36.40;48.20
10451;DHT22;5273;51.290;6.918;2023-07-29T09:21:38;35.60;50.40
10451;DHT22;5273;51.290;6.918;2023-07-29T09:24:07;34.70;50.80
10451;DHT22;5273;51.290;6.918;2023-07-29T09:26:35;33.70;52.70
10451;DHT22;5273;51.290;6.918;2023-07-29T09:29:02;32.60;53.90
10451;DHT22;5273;51.290;6.918;2023-07-29T09:31:29;31.70;56.60
10451;DHT22;5273;51.290;6.918;2023-07-29T09:33:57;30.80;57.20
10451;DHT22;5273;51.290;6.918;2023-07-29T09:36:25;30.10;60.10
10451;DHT22;5273;51.290;6.918;2023-07-29T09:38:53;29.30;62.10
10451;DHT22;5273;51.290;6.918;2023-07-29T09:41:24;28.60;65.60
10451;DHT22;5273;51.290;6.918;2023-07-29T09:43:56;28.20;67.50
10451;DHT22;5273;51.290;6.918;2023-07-29T09:46:24;27.60;69.90
10451;DHT22;5273;51.290;6.918;2023-07-29T09:48:53;27.50;71.70
10451;DHT22;5273;51.290;6.918;2023-07-29T09:51:21;27.20;72.80
10451;DHT22;5273;51.290;6.918;2023-07-29T09:53:49;26.90;74.90
10451;DHT22;5273;51.290;6.918;2023-07-29T09:56:16;26.60;76.90
10451;DHT22;5273;51.290;6.918;2023-07-29T09:58:45;26.40;77.80
10451;DHT22;5273;51.290;6.918;2023-07-29T10:01:13;26.20;78.80
10451;DHT22;5273;51.290;6.918;2023-07-29T10:03:40;25.90;80.10
10451;DHT22;5273;51.290;6.918;2023-07-29T10:06:08;25.60;82.60
10451;DHT22;5273;51.290;6.918;2023-07-29T10:08:35;25.60;83.20
10451;DHT22;5273;51.290;6.918;2023-07-29T10:11:05;25.70;85.30
10451;DHT22;5273;51.290;6.918;2023-07-29T10:13:34;26.40;87.40
10451;DHT22;5273;51.290;6.918;2023-07-29T10:16:03;27.20;83.00
10451;DHT22;5273;51.290;6.918;2023-07-29T10:18:31;27.50;76.40
10451;DHT22;5273;51.290;6.918;2023-07-29T10:21:00;27.50;76.90
10451;DHT22;5273;51.290;6.918;2023-07-29T10:23:28;27.70;77.20
10451;DHT22;5273;51.290;6.918;2023-07-29T10:26:02;28.30;74.00
10451;DHT22;5273;51.290;6.918;2023-07-29T10:28:31;28.70;73.50
10451;DHT22;5273;51.290;6.918;2023-07-29T10:30:59;28.70;73.40
10451;DHT22;5273;51.290;6.918;2023-07-29T10:33:27;28.90;74.50
10451;DHT22;5273;51.290;6.918;2023-07-29T10:35:54;29.20;70.10
10451;DHT22;5273;51.290;6.918;2023-07-29T10:38:22;29.20;68.50
10451;DHT22;5273;51.290;6.918;2023-07-29T10:40:51;28.90;70.50
10451;DHT22;5273;51.290;6.918;2023-07-29T10:43:22;28.70;70.10
10451;DHT22;5273;51.290;6.918;2023-07-29T10:45:50;28.40;71.20
10451;DHT22;5273;51.290;6.918;2023-07-29T10:48:42;28.20;71.50
10451;DHT22;5273;51.290;6.918;2023-07-29T10:51:26;28.00;73.50
10451;DHT22;5273;51.290;6.918;2023-07-29T10:53:55;27.60;72.80
10451;DHT22;5273;51.290;6.918;2023-07-29T10:56:30;27.30;75.40
10451;DHT22;5273;51.290;6.918;2023-07-29T10:58:59;27.00;78.00
10451;DHT22;5273;51.290;6.918;2023-07-29T11:01:29;26.80;78.40
10451;DHT22;5273;51.290;6.918;2023-07-29T11:04:27;26.70;80.40
10451;DHT22;5273;51.290;6.918;2023-07-29T11:07:23;26.50;80.60
10451;DHT22;5273;51.290;6.918;2023-07-29T11:09:55;26.50;81.30
10451;DHT22;5273;51.290;6.918;2023-07-29T11:12:43;26.40;80.90
10451;DHT22;5273;51.290;6.918;2023-07-29T11:15:29;26.60;80.80
10451;DHT22;5273;51.290;6.918;2023-07-29T11:17:57;26.50;80.50
10451;DHT22;5273;51.290;6.918;2023-07-29T11:20:26;26.50;81.50
10451;DHT22;5273;51.290;6.918;2023-07-29T11:22:53;26.50;81.90
10451;DHT22;5273;51.290;6.918;2023-07-29T11:25:22;26.40;82.00
10451;DHT22;5273;51.290;6.918;2023-07-29T11:27:53;26.30;82.00
10451;DHT22;5273;51.290;6.918;2023-07-29T11:30:20;26.30;81.50
10451;DHT22;5273;51.290;6.918;2023-07-29T11:32:49;26.00;82.00
10451;DHT22;5273;51.290;6.918;2023-07-29T11:35:16;25.90;82.90
10451;DHT22;5273;51.290;6.918;2023-07-29T11:37:47;25.60;83.20
10451;DHT22;5273;51.290;6.918;2023-07-29T11:40:15;25.50;86.40
10451;DHT22;5273;51.290;6.918;2023-07-29T11:42:42;25.50;84.80
10451;DHT22;5273;51.290;6.918;2023-07-29T11:45:10;25.60;84.90
10451;DHT22;5273;51.290;6.918;2023-07-29T11:47:37;25.70;83.70
10451;DHT22;5273;51.290;6.918;2023-07-29T11:50:04;25.90;83.90
10451;DHT22;5273;51.290;6.918;2023-07-29T11:52:32;26.00;83.90
10451;DHT22;5273;51.290;6.918;2023-07-29T11:55:02;25.90;82.20
10451;DHT22;5273;51.290;6.918;2023-07-29T11:57:29;25.80;82.70
10451;DHT22;5273;51.290;6.918;2023-07-29T11:59:56;25.70;81.40
10451;DHT22;5273;51.290;6.918;2023-07-29T12:02:24;25.50;83.60
10451;DHT22;5273;51.290;6.918;2023-07-29T12:04:52;25.60;85.90
10451;DHT22;5273;51.290;6.918;2023-07-29T12:07:19;25.60;85.30
10451;DHT22;5273;51.290;6.918;2023-07-29T12:09:46;25.70;85.60
10451;DHT22;5273;51.290;6.918;2023-07-29T12:12:15;25.70;85.70
10451;DHT22;5273;51.290;6.918;2023-07-29T12:14:44;25.50;84.90
10451;DHT22;5273;51.290;6.918;2023-07-29T12:17:12;25.40;85.90
10451;DHT22;5273;51.290;6.918;2023-07-29T12:19:40;25.20;86.60
10451;DHT22;5273;51.290;6.918;2023-07-29T12:22:09;25.20;86.50
10451;DHT22;5273;51.290;6.918;2023-07-29T12:24:38;25.30;88.10
10451;DHT22;5273;51.290;6.918;2023-07-29T12:27:09;25.60;88.40
10451;DHT22;5273;51.290;6.918;2023-07-29T12:29:42;25.80;87.50
10451;DHT22;5273;51.290;6.918;2023-07-29T12:32:09;26.00;87.70
10451;DHT22;5273;51.290;6.918;2023-07-29T12:34:38;26.10;87.50
10451;DHT22;5273;51.290;6.918;2023-07-29T12:37:06;26.10;85.70
10451;DHT22;5273;51.290;6.918;2023-07-29T12:39:34;26.00;85.30
10451;DHT22;5273;51.290;6.918;2023-07-29T12:42:02;26.00;87.20
10451;DHT22;5273;51.290;6.918;2023-07-29T12:44:31;26.10;84.10
10451;DHT22;5273;51.290;6.918;2023-07-29T12:47:00;26.10;83.20
10451;DHT22;5273;51.290;6.918;2023-07-29T12:49:27;26.20;82.70
10451;DHT22;5273;51.290;6.918;2023-07-29T12:51:55;26.20;84.00
10451;DHT22;5273;51.290;6.918;2023-07-29T12:54:21;26.20;82.00
10451;DHT22;5273;51.290;6.918;2023-07-29T12:56:48;26.40;84.50
10451;DHT22;5273;51.290;6.918;2023-07-29T12:59:15;26.50;83.40
10451;DHT22;5273;51.290;6.918;2023-07-29T13:01:42;26.50;80.40
10451;DHT22;5273;51.290;6.918;2023-07-29T13:04:11;26.50;79.90
10451;DHT22;5273;51.290;6.918;2023-07-29T13:06:38;26.50;78.70
10451;DHT22;5273;51.290;6.918;2023-07-29T13:09:05;26.50;80.30
10451;DHT22;5273;51.290;6.918;2023-07-29T13:11:31;26.40;81.50
10451;DHT22;5273;51.290;6.918;2023-07-29T13:13:58;26.40;81.10
10451;DHT22;5273;51.290;6.918;2023-07-29T13:16:26;26.30;81.20
10451;DHT22;5273;51.290;6.918;2023-07-29T13:18:53;26.40;81.20
10451;DHT22;5273;51.290;6.918;2023-07-29T13:21:21;26.40;83.20
10451;DHT22;5273;51.290;6.918;2023-07-29T13:23:48;26.40;80.50
10451;DHT22;5273;51.290;6.918;2023-07-29T13:26:15;26.40;79.70
10451;DHT22;5273;51.290;6.918;2023-07-29T13:28:42;26.20;81.10
10451;DHT22;5273;51.290;6.918;2023-07-29T13:31:09;26.00;81.70
10451;DHT22;5273;51.290;6.918;2023-07-29T13:33:36;25.90;83.40
10451;DHT22;5273;51.290;6.918;2023-07-29T13:36:03;25.80;83.30
10451;DHT22;5273;51.290;6.918;2023-07-29T13:38:32;25.60;85.20
10451;DHT22;5273;51.290;6.918;2023-07-29T13:40:59;25.40;86.70
10451;DHT22;5273;51.290;6.918;2023-07-29T13:43:26;25.10;87.00
10451;DHT22;5273;51.290;6.918;2023-07-29T13:45:53;24.90;88.20
10451;DHT22;5273;51.290;6.918;2023-07-29T13:48:19;24.70;90.20
10451;DHT22;5273;51.290;6.918;2023-07-29T13:50:47;24.60;90.50
10451;DHT22;5273;51.290;6.918;2023-07-29T13:53:14;24.60;91.10
10451;DHT22;5273;51.290;6.918;2023-07-29T13:55:42;24.60;91.50
10451;DHT22;5273;51.290;6.918;2023-07-29T13:58:09;24.50;91.50
10451;DHT22;5273;51.290;6.918;2023-07-29T14:00:35;24.50;91.50
10451;DHT22;5273;51.290;6.918;2023-07-29T14:03:03;24.50;91.50
10451;DHT22;5273;51.290;6.918;2023-07-29T14:05:29;24.50;92.10
10451;DHT22;5273;51.290;6.918;2023-07-29T14:07:56;24.50;92.40
10451;DHT22;5273;51.290;6.918;2023-07-29T14:10:24;24.50;92.30
10451;DHT22;5273;51.290;6.918;2023-07-29T14:12:52;24.50;92.30
10451;DHT22;5273;51.290;6.918;2023-07-29T14:15:19;24.60;92.70
10451;DHT22;5273;51.290;6.918;2023-07-29T14:17:46;24.80;93.20
10451;DHT22;5273;51.290;6.918;2023-07-29T14:20:13;25.10;93.00
10451;DHT22;5273;51.290;6.918;2023-07-29T14:22:40;25.30;91.90
10451;DHT22;5273;51.290;6.918;2023-07-29T14:25:07;25.50;91.70
10451;DHT22;5273;51.290;6.918;2023-07-29T14:27:34;25.50;90.70
10451;DHT22;5273;51.290;6.918;2023-07-29T14:30:03;25.40;90.20
10451;DHT22;5273;51.290;6.918;2023-07-29T14:32:30;25.30;90.60
10451;DHT22;5273;51.290;6.918;2023-07-29T14:34:57;25.20;91.40
10451;DHT22;5273;51.290;6.918;2023-07-29T14:37:26;25.20;91.60
10451;DHT22;5273;51.290;6.918;2023-07-29T14:39:53;25.00;92.00
10451;DHT22;5273;51.290;6.918;2023-07-29T14:42:20;25.20;91.80
10451;DHT22;5273;51.290;6.918;2023-07-29T14:44:47;25.20;92.20
10451;DHT22;5273;51.290;6.918;2023-07-29T14:47:15;25.20;91.80
10451;DHT22;5273;51.290;6.918;2023-07-29T14:49:41;25.10;91.50
10451;DHT22;5273;51.290;6.918;2023-07-29T14:52:08;24.90;91.40
10451;DHT22;5273;51.290;6.918;2023-07-29T14:54:35;24.80;91.90
10451;DHT22;5273;51.290;6.918;2023-07-29T14:57:02;24.50;92.20
10451;DHT22;5273;51.290;6.918;2023-07-29T14:59:29;24.50;92.90
10451;DHT22;5273;51.290;6.918;2023-07-29T15:01:56;24.40;93.90
10451;DHT22;5273;51.290;6.918;2023-07-29T15:04:24;24.40;93.30
10451;DHT22;5273;51.290;6.918;2023-07-29T15:06:51;24.40;93.10
10451;DHT22;5273;51.290;6.918;2023-07-29T15:09:18;24.40;92.70
10451;DHT22;5273;51.290;6.918;2023-07-29T15:11:44;24.40;92.90
10451;DHT22;5273;51.290;6.918;2023-07-29T15:14:11;24.50;93.40
10451;DHT22;5273;51.290;6.918;2023-07-29T15:16:38;24.50;92.80
10451;DHT22;5273;51.290;6.918;2023-07-29T15:19:05;24.60;92.50
10451;DHT22;5273;51.290;6.918;2023-07-29T15:21:33;24.70;93.00
10451;DHT22;5273;51.290;6.918;2023-07-29T15:24:00;24.80;92.20
10451;DHT22;5273;51.290;6.918;2023-07-29T15:26:27;24.90;91.40
10451;DHT22;5273;51.290;6.918;2023-07-29T15:28:53;24.90;91.30
10451;DHT22;5273;51.290;6.918;2023-07-29T15:31:20;25.00;91.20
10451;DHT22;5273;51.290;6.918;2023-07-29T15:33:48;25.00;91.00
10451;DHT22;5273;51.290;6.918;2023-07-29T15:36:16;25.00;90.30
10451;DHT22;5273;51.290;6.918;2023-07-29T15:38:44;25.10;90.60
10451;DHT22;5273;51.290;6.918;2023-07-29T15:41:10;25.10;89.60
10451;DHT22;5273;51.290;6.918;2023-07-29T15:43:37;25.00;89.50
10451;DHT22;5273;51.290;6.918;2023-07-29T15:46:04;25.00;89.70
10451;DHT22;5273;51.290;6.918;2023-07-29T15:48:31;25.10;90.70